Time;durP1;ratioP1;P1;durP2;ratioP2;P2;SDS_P1;SDS_P2;PMS_P1;PMS_P2;Temp;Humidity;BMP_temperature;BMP_pressure;BME280_temperature;BME280_humidity;BME280_pressure;Samples;Min_cycle;Max_cycle;Signal;HPM_P1;HPM_P2
2021/06/14 00:00:50;;;;;;;10.60;5.57;;;17.80;99.90;;;;;;5026810;28;20096;-63
2021/06/14 00:03:16;;;;;;;10.48;5.38;;;17.70;99.90;;;;;;5029399;28;20026;-62
2021/06/14 00:05:43;;;;;;;16.10;5.60;;;17.60;99.90;;;;;;5041533;28;20045;-62
2021/06/14 00:08:11;;;;;;;9.95;5.45;;;17.60;99.90;;;;;;5045469;28;20035;-63
2021/06/14 00:10:38;;;;;;;13.10;5.88;;;17.70;99.90;;;;;;5038371;28;20029;-62
2021/06/14 00:13:06;;;;;;;12.95;6.38;;;17.70;99.90;;;;;;5028090;28;20045;-62
2021/06/14 00:15:32;;;;;;;13.43;5.78;;;17.70;99.90;;;;;;5028598;28;20215;-65
2021/06/14 00:17:58;;;;;;;9.27;5.55;;;17.80;99.90;;;;;;5033456;28;20405;-63
2021/06/14 00:20:24;;;;;;;12.15;6.20;;;17.80;99.90;;;;;;5034887;28;20048;-64
2021/06/14 00:22:51;;;;;;;13.25;6.55;;;17.80;99.90;;;;;;5032840;28;20815;-65
2021/06/14 00:25:21;;;;;;;11.65;6.35;;;17.60;99.90;;;;;;5033392;28;20040;-61
2021/06/14 00:27:47;;;;;;;9.70;5.93;;;17.50;99.90;;;;;;5030104;28;20026;-62
2021/06/14 00:30:13;;;;;;;7.85;6.60;;;17.50;99.90;;;;;;5029479;28;20041;-63
2021/06/14 00:32:39;;;;;;;14.07;7.55;;;17.40;99.90;;;;;;5027971;28;20024;-63
2021/06/14 00:35:06;;;;;;;11.25;6.57;;;17.40;99.90;;;;;;5029359;28;20037;-63
2021/06/14 00:37:32;;;;;;;12.98;6.28;;;17.40;99.90;;;;;;5027413;28;20028;-63
2021/06/14 00:39:57;;;;;;;13.25;7.43;;;17.40;99.90;;;;;;5027308;28;20022;-62
2021/06/14 00:42:23;;;;;;;12.95;7.18;;;17.40;99.90;;;;;;5027099;28;20528;-63
2021/06/14 00:44:49;;;;;;;13.02;6.95;;;17.30;99.90;;;;;;5042870;28;20039;-62
2021/06/14 00:47:14;;;;;;;14.10;6.80;;;17.30;99.90;;;;;;5024601;28;20088;-63
2021/06/14 00:49:40;;;;;;;12.07;7.22;;;17.30;99.90;;;;;;5023163;28;20009;-63
2021/06/14 00:52:06;;;;;;;12.15;8.15;;;17.30;99.90;;;;;;5027493;28;20230;-64
2021/06/14 00:54:31;;;;;;;9.90;7.15;;;17.30;99.90;;;;;;5026863;28;20097;-62
2021/06/14 00:56:57;;;;;;;11.88;8.05;;;17.20;99.90;;;;;;5028958;28;20459;-63
2021/06/14 00:59:24;;;;;;;14.60;8.75;;;17.20;99.90;;;;;;5031137;28;20065;-62
2021/06/14 01:01:50;;;;;;;15.23;8.43;;;17.00;99.90;;;;;;5030624;28;20454;-63
2021/06/14 01:04:17;;;;;;;16.52;7.97;;;17.00;99.90;;;;;;5025417;28;20104;-62
2021/06/14 01:06:44;;;;;;;16.00;7.95;;;17.00;99.90;;;;;;5041552;28;20276;-61
2021/06/14 01:09:10;;;;;;;20.08;8.38;;;17.00;99.90;;;;;;5027782;28;20029;-64
2021/06/14 01:11:44;;;;;;;17.83;7.95;;;17.00;99.90;;;;;;5026716;28;20033;-63
2021/06/14 01:14:21;;;;;;;15.25;8.32;;;16.90;99.90;;;;;;5027408;28;20052;-62
2021/06/14 01:16:51;;;;;;;13.07;7.15;;;16.90;99.90;;;;;;5018820;28;20029;-63
2021/06/14 01:19:19;;;;;;;19.40;8.82;;;16.90;99.90;;;;;;5022851;28;20013;-63
2021/06/14 01:22:22;;;;;;;14.05;7.93;;;16.90;99.90;;;;;;5042840;28;20033;-62
2021/06/14 01:25:05;;;;;;;12.80;8.50;;;17.00;99.90;;;;;;5026017;28;20029;-61
2021/06/14 01:27:43;;;;;;;18.58;7.82;;;16.90;99.90;;;;;;5014643;28;20106;-63
2021/06/14 01:30:17;;;;;;;10.95;8.00;;;16.80;99.90;;;;;;5026867;28;20032;-62
2021/06/14 01:32:43;;;;;;;13.70;7.68;;;16.70;99.90;;;;;;5027399;28;20118;-63
2021/06/14 01:35:11;;;;;;;11.27;8.00;;;16.70;99.90;;;;;;5025776;28;20084;-63
2021/06/14 01:37:44;;;;;;;16.55;8.75;;;16.70;99.90;;;;;;5026049;28;20031;-64
2021/06/14 01:40:11;;;;;;;12.93;8.30;;;16.70;99.90;;;;;;5026843;28;20041;-63
2021/06/14 01:42:38;;;;;;;14.40;8.30;;;16.70;99.90;;;;;;5026274;28;20021;-63
2021/06/14 01:45:05;;;;;;;12.73;8.88;;;16.60;99.90;;;;;;5026682;28;20064;-62
2021/06/14 01:47:31;;;;;;;16.30;8.43;;;16.60;99.90;;;;;;5024991;28;20365;-62
2021/06/14 01:49:57;;;;;;;16.48;9.32;;;16.60;99.90;;;;;;5043054;28;20077;-63
2021/06/14 01:52:23;;;;;;;14.60;9.25;;;16.60;99.90;;;;;;5025869;28;20056;-62
2021/06/14 01:54:52;;;;;;;14.10;8.63;;;16.50;99.90;;;;;;5042673;28;20057;-63
2021/06/14 01:57:18;;;;;;;13.10;8.48;;;16.50;99.90;;;;;;5025644;28;20029;-62
2021/06/14 01:59:45;;;;;;;14.30;7.88;;;16.60;99.90;;;;;;5026229;28;20466;-63
2021/06/14 02:02:11;;;;;;;14.23;8.32;;;16.60;99.90;;;;;;5026049;28;20492;-62
2021/06/14 02:04:39;;;;;;;14.48;8.23;;;16.60;99.90;;;;;;5025569;28;20075;-63
2021/06/14 02:07:05;;;;;;;18.38;9.70;;;16.60;99.90;;;;;;5027014;28;20025;-63
2021/06/14 02:09:32;;;;;;;11.68;8.55;;;16.50;99.90;;;;;;5033283;28;20026;-62
2021/06/14 02:12:01;;;;;;;14.57;8.32;;;16.50;99.90;;;;;;5029090;28;20013;-65
2021/06/14 02:14:31;;;;;;;15.70;8.65;;;16.60;99.90;;;;;;5026635;28;20585;-62
2021/06/14 02:17:01;;;;;;;15.20;9.20;;;16.60;99.90;;;;;;5028942;28;20060;-62
2021/06/14 02:19:27;;;;;;;13.38;9.27;;;16.60;99.90;;;;;;5031163;28;20030;-63
2021/06/14 02:21:53;;;;;;;17.27;9.50;;;16.50;99.90;;;;;;5026566;28;20030;-64
2021/06/14 02:24:18;;;;;;;12.05;8.90;;;16.50;99.90;;;;;;5031647;28;20430;-63
2021/06/14 02:26:45;;;;;;;13.32;8.98;;;16.50;99.90;;;;;;5031102;28;20036;-63
2021/06/14 02:29:11;;;;;;;13.02;8.95;;;16.40;99.90;;;;;;5030020;28;20025;-62
2021/06/14 02:31:36;;;;;;;18.70;9.70;;;16.40;99.90;;;;;;5030859;28;20029;-62
2021/06/14 02:34:04;;;;;;;17.80;10.32;;;16.30;99.90;;;;;;5029849;28;20035;-62
2021/06/14 02:36:31;;;;;;;21.08;10.07;;;16.20;99.90;;;;;;5031167;28;20055;-62
2021/06/14 02:39:00;;;;;;;18.27;9.27;;;16.20;99.90;;;;;;5027575;28;20029;-62
2021/06/14 02:41:27;;;;;;;17.05;9.68;;;16.30;99.90;;;;;;5030825;28;20360;-62
2021/06/14 02:43:52;;;;;;;15.88;9.98;;;16.30;99.90;;;;;;5030829;28;20040;-63
2021/06/14 02:46:18;;;;;;;17.30;10.02;;;16.40;99.90;;;;;;5030901;28;20017;-62
2021/06/14 02:48:47;;;;;;;13.13;8.70;;;16.30;99.90;;;;;;5032983;28;20033;-62
2021/06/14 02:51:14;;;;;;;16.33;9.73;;;16.30;99.90;;;;;;5034219;28;20505;-62
2021/06/14 02:53:40;;;;;;;14.50;9.45;;;16.20;99.90;;;;;;5031097;28;20290;-61
2021/06/14 02:56:18;;;;;;;16.30;9.23;;;16.20;99.90;;;;;;5031831;28;20107;-62
2021/06/14 02:58:48;;;;;;;14.60;9.07;;;16.20;99.90;;;;;;5024724;28;20037;-62
2021/06/14 03:01:13;;;;;;;11.32;8.70;;;16.40;99.90;;;;;;5029550;28;20060;-63
2021/06/14 03:03:41;;;;;;;13.77;9.02;;;16.30;99.90;;;;;;5029676;28;20049;-63
2021/06/14 03:06:11;;;;;;;14.80;9.20;;;16.20;99.90;;;;;;5030233;28;20022;-64
2021/06/14 03:08:38;;;;;;;21.30;9.88;;;16.20;99.90;;;;;;5018868;28;20030;-63
2021/06/14 03:11:04;;;;;;;12.77;8.88;;;16.10;99.90;;;;;;5029514;28;20013;-63
2021/06/14 03:13:30;;;;;;;14.60;9.38;;;16.10;99.90;;;;;;5029458;28;20033;-62
2021/06/14 03:15:55;;;;;;;14.85;8.65;;;16.10;99.90;;;;;;5030116;28;20731;-63
2021/06/14 03:18:24;;;;;;;15.43;8.43;;;16.10;99.90;;;;;;5028408;28;20087;-62
2021/06/14 03:20:53;;;;;;;14.20;8.65;;;16.10;99.90;;;;;;5029960;28;20037;-62
2021/06/14 03:23:19;;;;;;;16.85;9.60;;;16.10;99.90;;;;;;5030575;28;20051;-62
2021/06/14 03:25:44;;;;;;;15.65;8.25;;;16.10;99.90;;;;;;5033735;28;20522;-63
2021/06/14 03:28:11;;;;;;;20.98;8.43;;;16.10;99.90;;;;;;5033964;28;20036;-64
2021/06/14 03:30:40;;;;;;;10.48;7.60;;;16.20;99.90;;;;;;5033620;28;20033;-63
2021/06/14 03:33:08;;;;;;;14.73;9.40;;;16.00;99.90;;;;;;5032156;28;20146;-63
2021/06/14 03:35:35;;;;;;;11.38;7.78;;;16.00;99.90;;;;;;5029320;28;20081;-62
2021/06/14 03:38:01;;;;;;;12.10;7.35;;;16.00;99.90;;;;;;5028432;28;20122;-62
2021/06/14 03:40:27;;;;;;;13.43;8.18;;;16.10;99.90;;;;;;5027727;28;20387;-63
2021/06/14 03:42:59;;;;;;;11.30;7.22;;;16.10;99.90;;;;;;5028830;28;20038;-63
2021/06/14 03:45:25;;;;;;;14.20;7.45;;;16.10;99.90;;;;;;5028868;28;20080;-62
2021/06/14 03:47:51;;;;;;;14.35;7.35;;;16.10;99.90;;;;;;5028667;28;20345;-64
2021/06/14 03:50:17;;;;;;;16.40;7.80;;;16.00;99.90;;;;;;5029560;28;20364;-63
2021/06/14 03:52:43;;;;;;;11.80;7.13;;;16.00;99.90;;;;;;5027891;28;20029;-62
2021/06/14 03:55:10;;;;;;;19.33;7.43;;;16.10;99.90;;;;;;5028657;28;20354;-65
2021/06/14 03:57:36;;;;;;;14.13;7.25;;;16.10;99.90;;;;;;5029088;28;20067;-62
2021/06/14 04:00:05;;;;;;;14.35;7.40;;;16.20;99.90;;;;;;5035870;28;20048;-63
2021/06/14 04:02:30;;;;;;;13.85;7.13;;;16.30;99.90;;;;;;5030935;28;20053;-62
2021/06/14 04:04:56;;;;;;;16.27;7.20;;;16.30;99.90;;;;;;5027667;28;20107;-62
2021/06/14 04:07:22;;;;;;;15.30;6.75;;;16.30;99.90;;;;;;5029471;28;20022;-62
2021/06/14 04:09:48;;;;;;;12.40;6.05;;;16.30;99.90;;;;;;5027775;28;20028;-62
2021/06/14 04:12:13;;;;;;;12.70;6.05;;;16.30;99.90;;;;;;5028727;28;20479;-63
2021/06/14 04:14:42;;;;;;;14.43;6.63;;;16.40;99.90;;;;;;5029170;28;20032;-63
2021/06/14 04:17:07;;;;;;;12.73;6.20;;;16.50;99.90;;;;;;5028536;28;20041;-63
2021/06/14 04:19:34;;;;;;;23.52;7.43;;;16.60;99.90;;;;;;5046462;28;20137;-63
2021/06/14 04:21:59;;;;;;;9.88;5.68;;;16.70;99.90;;;;;;5049793;28;20119;-63
2021/06/14 04:24:25;;;;;;;11.82;6.90;;;16.80;99.90;;;;;;5025798;28;20465;-64
2021/06/14 04:26:51;;;;;;;16.27;6.32;;;16.70;99.90;;;;;;5027262;28;20017;-63
2021/06/14 04:29:17;;;;;;;15.27;7.07;;;16.70;99.90;;;;;;5028044;28;20361;-64
2021/06/14 04:31:42;;;;;;;11.70;5.85;;;16.80;99.90;;;;;;5027980;28;20396;-63
2021/06/14 04:34:08;;;;;;;17.45;6.60;;;16.80;99.90;;;;;;5028781;28;20067;-62
2021/06/14 04:36:33;;;;;;;18.73;6.05;;;16.80;99.90;;;;;;5028563;28;20506;-64
2021/06/14 04:39:00;;;;;;;19.13;6.95;;;16.90;99.90;;;;;;5026559;28;20021;-62
2021/06/14 04:41:26;;;;;;;17.92;6.57;;;17.00;99.90;;;;;;5028430;28;20117;-63
2021/06/14 04:43:52;;;;;;;22.90;7.38;;;17.10;99.90;;;;;;5027150;28;20105;-62
2021/06/14 04:46:17;;;;;;;17.13;6.43;;;17.20;99.90;;;;;;5042674;28;20423;-63
2021/06/14 04:48:43;;;;;;;16.13;7.28;;;17.30;99.90;;;;;;5027421;28;20033;-63
2021/06/14 04:51:08;;;;;;;18.58;6.85;;;17.30;99.90;;;;;;5029836;28;20081;-62
2021/06/14 04:53:34;;;;;;;21.23;7.50;;;17.20;99.90;;;;;;5028729;28;20029;-63
2021/06/14 04:55:59;;;;;;;19.90;6.72;;;17.30;99.90;;;;;;5027481;28;20071;-63
2021/06/14 04:58:25;;;;;;;20.80;7.28;;;17.30;99.90;;;;;;5030221;28;20115;-63
2021/06/14 05:00:50;;;;;;;17.73;7.10;;;17.40;99.90;;;;;;5026408;28;20178;-63
2021/06/14 05:03:16;;;;;;;19.42;7.25;;;17.60;99.90;;;;;;5028513;28;20167;-63
2021/06/14 05:05:42;;;;;;;13.05;6.45;;;17.60;99.90;;;;;;5027230;28;20138;-63
2021/06/14 05:08:07;;;;;;;21.50;7.78;;;17.60;99.90;;;;;;5026565;28;20013;-62
2021/06/14 05:10:33;;;;;;;17.35;6.90;;;17.70;99.90;;;;;;5027992;28;20034;-63
2021/06/14 05:12:59;;;;;;;26.52;7.22;;;17.70;99.90;;;;;;5026043;28;20056;-63
2021/06/14 05:15:25;;;;;;;18.15;7.20;;;17.90;99.90;;;;;;5030740;28;20034;-64
2021/06/14 05:17:51;;;;;;;16.48;7.07;;;17.90;99.90;;;;;;5028772;28;20022;-63
2021/06/14 05:20:17;;;;;;;15.90;7.90;;;17.90;99.90;;;;;;5027831;28;20022;-63
2021/06/14 05:22:44;;;;;;;21.70;7.30;;;18.00;99.90;;;;;;5026677;28;20108;-63
2021/06/14 05:25:11;;;;;;;17.55;7.32;;;18.00;99.90;;;;;;5025549;28;20022;-63
2021/06/14 05:27:37;;;;;;;31.75;8.13;;;18.00;99.90;;;;;;5044957;22;20121;-66
2021/06/14 05:30:03;;;;;;;18.55;7.10;;;18.00;99.90;;;;;;5013121;28;20132;-66
2021/06/14 05:32:29;;;;;;;23.73;7.43;;;18.20;99.90;;;;;;5016769;28;20029;-66
2021/06/14 05:34:54;;;;;;;21.10;7.38;;;18.30;99.90;;;;;;5022676;28;20014;-67
2021/06/14 05:37:20;;;;;;;25.00;7.43;;;18.30;99.90;;;;;;5023572;28;20071;-66
2021/06/14 05:39:45;;;;;;;26.52;7.95;;;18.40;99.90;;;;;;5021531;28;20065;-66
2021/06/14 05:42:11;;;;;;;16.73;7.75;;;18.50;99.90;;;;;;5019674;28;20022;-67
2021/06/14 05:44:36;;;;;;;16.60;8.15;;;18.60;99.90;;;;;;5024957;28;20055;-65
2021/06/14 05:47:02;;;;;;;18.67;7.70;;;18.60;99.90;;;;;;5023217;28;20135;-67
2021/06/14 05:49:28;;;;;;;16.90;7.53;;;18.60;99.90;;;;;;5023900;28;20032;-67
2021/06/14 05:51:54;;;;;;;18.35;7.63;;;18.60;99.90;;;;;;5025793;28;20028;-65
2021/06/14 05:54:20;;;;;;;24.50;7.85;;;18.80;99.90;;;;;;5025806;28;20029;-66
2021/06/14 05:56:46;;;;;;;19.98;7.80;;;18.80;99.90;;;;;;5026593;28;20047;-67
2021/06/14 05:59:11;;;;;;;18.38;7.13;;;18.70;99.90;;;;;;5021518;28;20026;-66
2021/06/14 06:01:37;;;;;;;22.58;8.32;;;18.90;99.90;;;;;;5022468;28;20112;-67
2021/06/14 06:04:03;;;;;;;23.55;8.18;;;19.00;99.90;;;;;;5019756;28;20025;-65
2021/06/14 06:06:28;;;;;;;24.52;7.90;;;19.30;99.90;;;;;;5012735;28;20535;-68
2021/06/14 06:08:54;;;;;;;12.88;7.30;;;19.70;99.90;;;;;;5012014;28;20330;-66
2021/06/14 06:11:19;;;;;;;22.10;7.15;;;19.90;99.90;;;;;;5022070;28;20052;-66
2021/06/14 06:13:47;;;;;;;18.92;7.57;;;20.30;99.90;;;;;;5022145;28;20147;-67
2021/06/14 06:16:13;;;;;;;20.55;6.55;;;20.50;99.90;;;;;;5039598;28;20088;-67
2021/06/14 06:18:38;;;;;;;15.63;7.65;;;20.70;99.90;;;;;;5039594;28;20033;-68
2021/06/14 06:21:04;;;;;;;17.00;7.47;;;21.00;99.90;;;;;;5039960;28;20093;-66
2021/06/14 06:23:30;;;;;;;16.55;6.45;;;21.20;99.90;;;;;;5022717;28;20029;-65
2021/06/14 06:25:55;;;;;;;13.50;6.20;;;21.30;99.90;;;;;;5026058;28;20045;-65
2021/06/14 06:28:21;;;;;;;16.88;6.93;;;21.40;99.90;;;;;;5019286;28;20080;-66
2021/06/14 06:30:46;;;;;;;19.23;6.63;;;21.20;99.90;;;;;;5021256;28;20076;-65
2021/06/14 06:33:12;;;;;;;28.75;7.50;;;21.10;99.90;;;;;;5013738;28;20052;-64
2021/06/14 06:35:38;;;;;;;22.17;6.72;;;21.00;99.90;;;;;;5021909;28;20475;-67
2021/06/14 06:38:04;;;;;;;30.38;8.07;;;21.20;99.90;;;;;;5016604;28;20400;-66
2021/06/14 06:40:31;;;;;;;16.77;6.30;;;21.30;99.90;;;;;;5013975;28;20026;-64
2021/06/14 06:42:57;;;;;;;18.85;6.20;;;21.40;99.90;;;;;;5020186;28;20018;-67
2021/06/14 06:45:25;;;;;;;17.85;6.35;;;21.50;99.90;;;;;;5028595;28;20926;-66
2021/06/14 06:47:52;;;;;;;18.13;6.93;;;21.70;99.90;;;;;;5017049;28;20063;-65
2021/06/14 06:50:19;;;;;;;18.73;6.18;;;22.00;99.90;;;;;;5024927;28;20014;-70
2021/06/14 06:52:45;;;;;;;11.48;6.25;;;22.20;99.90;;;;;;5041186;28;20032;-67
2021/06/14 06:55:15;;;;;;;16.88;5.68;;;22.50;99.90;;;;;;5036048;28;20021;-68
2021/06/14 06:57:41;;;;;;;15.50;5.75;;;22.50;99.90;;;;;;5033284;28;20021;-66
2021/06/14 07:00:14;;;;;;;11.65;6.15;;;22.50;99.60;;;;;;5035972;28;20018;-66
2021/06/14 07:02:41;;;;;;;15.43;6.85;;;22.80;99.90;;;;;;5025563;28;20018;-66
2021/06/14 07:05:07;;;;;;;16.67;7.40;;;22.70;99.90;;;;;;5027699;28;20030;-64
2021/06/14 07:07:32;;;;;;;18.98;6.25;;;22.90;99.70;;;;;;5027206;28;20390;-65
2021/06/14 07:09:59;;;;;;;14.68;7.00;;;22.60;99.90;;;;;;5028619;28;20025;-66
2021/06/14 07:12:25;;;;;;;10.95;6.25;;;22.60;99.90;;;;;;5020632;28;20014;-65
2021/06/14 07:14:50;;;;;;;23.48;6.82;;;22.30;99.70;;;;;;5020764;28;20048;-66
2021/06/14 07:17:16;;;;;;;16.63;7.70;;;22.10;99.90;;;;;;5022850;28;20076;-67
2021/06/14 07:19:43;;;;;;;17.92;6.93;;;22.40;99.90;;;;;;5019929;28;20109;-66
2021/06/14 07:22:08;;;;;;;21.27;7.88;;;22.30;99.90;;;;;;5013073;28;20459;-68
2021/06/14 07:24:34;;;;;;;12.10;7.05;;;22.40;99.90;;;;;;5023693;28;20109;-65
2021/06/14 07:27:00;;;;;;;16.00;8.05;;;22.50;99.90;;;;;;5019668;28;20017;-65
2021/06/14 07:29:25;;;;;;;17.92;7.35;;;22.60;99.60;;;;;;5012942;28;20041;-66
2021/06/14 07:31:51;;;;;;;21.88;8.07;;;22.50;99.90;;;;;;5017146;28;20014;-65
2021/06/14 07:34:16;;;;;;;16.42;6.75;;;22.60;99.70;;;;;;5015064;28;20401;-65
2021/06/14 07:36:42;;;;;;;17.00;7.88;;;22.60;99.80;;;;;;5016048;28;20537;-66
2021/06/14 07:39:07;;;;;;;21.40;6.60;;;22.40;99.60;;;;;;5013884;28;20229;-65
2021/06/14 07:41:34;;;;;;;16.90;6.63;;;22.30;99.90;;;;;;5027006;28;20072;-68
2021/06/14 07:43:59;;;;;;;24.90;7.25;;;22.30;98.90;;;;;;5014000;28;20022;-66
2021/06/14 07:46:25;;;;;;;17.92;7.22;;;22.40;99.40;;;;;;5027852;28;20108;-67
2021/06/14 07:48:54;;;;;;;16.08;6.55;;;22.60;99.50;;;;;;5030426;28;20029;-69
2021/06/14 07:51:20;;;;;;;12.48;6.18;;;22.70;99.90;;;;;;5021302;28;20014;-66
2021/06/14 07:53:50;;;;;;;22.38;6.65;;;23.00;98.80;;;;;;5019392;28;20022;-66
2021/06/14 07:56:15;;;;;;;24.10;7.35;;;22.80;98.90;;;;;;5009205;28;20026;-67
2021/06/14 07:58:41;;;;;;;13.27;6.93;;;23.00;99.00;;;;;;5011319;28;20029;-66
2021/06/14 08:01:07;;;;;;;16.60;8.23;;;22.90;97.00;;;;;;5017740;28;20541;-66
2021/06/14 08:03:33;;;;;;;11.90;6.05;;;23.00;97.00;;;;;;5024119;28;20044;-66
2021/06/14 08:06:00;;;;;;;13.23;6.68;;;23.10;96.50;;;;;;5016940;28;20497;-66
2021/06/14 08:08:25;;;;;;;18.48;6.60;;;23.40;96.70;;;;;;5014137;28;20408;-66
2021/06/14 08:10:52;;;;;;;13.85;5.43;;;23.50;96.00;;;;;;5015002;28;20014;-67
2021/06/14 08:13:18;;;;;;;15.45;6.75;;;23.70;96.10;;;;;;5012479;28;20022;-65
2021/06/14 08:15:44;;;;;;;13.50;5.30;;;23.70;94.90;;;;;;5021251;28;20267;-67
2021/06/14 08:21:08;;;;;;;15.70;6.60;;;23.60;94.50;;;;;;5015623;28;20026;-64
2021/06/14 08:26:25;;;;;;;12.63;6.25;;;23.60;95.30;;;;;;5015610;28;20067;-65
2021/06/14 08:28:51;;;;;;;16.07;5.80;;;23.70;94.30;;;;;;5013145;28;20445;-68
2021/06/14 08:31:18;;;;;;;13.02;5.35;;;23.60;95.30;;;;;;5015057;28;20013;-66
2021/06/14 08:33:43;;;;;;;11.98;5.22;;;23.70;96.10;;;;;;5023397;28;20029;-66
2021/06/14 08:36:10;;;;;;;13.90;5.68;;;23.80;95.10;;;;;;5025762;28;20025;-66
2021/06/14 08:38:35;;;;;;;9.48;4.63;;;24.00;95.70;;;;;;5017560;28;20026;-66
2021/06/14 08:41:02;;;;;;;10.30;4.25;;;24.00;93.70;;;;;;5015621;28;20052;-64
2021/06/14 08:43:29;;;;;;;15.00;4.80;;;24.20;95.20;;;;;;5019933;28;20048;-65
2021/06/14 08:45:56;;;;;;;11.68;4.45;;;24.30;93.10;;;;;;5025170;28;20050;-66
2021/06/14 08:48:23;;;;;;;8.85;4.32;;;24.40;93.60;;;;;;5026216;28;20344;-66
2021/06/14 08:50:49;;;;;;;8.80;3.78;;;24.50;92.50;;;;;;5017398;28;20052;-65
2021/06/14 08:53:14;;;;;;;15.13;4.45;;;24.40;91.70;;;;;;5025453;28;20053;-67
2021/06/14 08:55:40;;;;;;;14.63;4.15;;;24.60;92.20;;;;;;5025797;28;20021;-67
2021/06/14 08:58:06;;;;;;;11.38;3.90;;;24.60;91.50;;;;;;5019766;28;20530;-69
2021/06/14 09:00:34;;;;;;;16.25;4.07;;;24.50;90.50;;;;;;5021212;28;20029;-67
2021/06/14 09:03:00;;;;;;;15.48;4.57;;;24.40;91.00;;;;;;5024168;28;20026;-67
2021/06/14 09:05:26;;;;;;;9.93;3.80;;;24.30;91.20;;;;;;5020963;28;20102;-66
2021/06/14 09:07:55;;;;;;;10.00;3.97;;;24.50;91.50;;;;;;5025554;28;20025;-66
2021/06/14 09:10:32;;;;;;;8.77;3.40;;;24.60;87.50;;;;;;5024379;28;20018;-66
2021/06/14 09:13:16;;;;;;;9.02;3.38;;;24.70;86.80;;;;;;5023555;28;20067;-66
2021/06/14 09:15:44;;;;;;;10.32;4.35;;;24.80;87.00;;;;;;5018959;28;20366;-66
2021/06/14 09:18:28;;;;;;;10.82;4.43;;;24.70;87.60;;;;;;5018387;28;20021;-67
2021/06/14 09:21:00;;;;;;;12.35;4.55;;;24.60;89.40;;;;;;5018971;28;20032;-67
2021/06/14 09:23:48;;;;;;;7.53;4.45;;;24.70;82.90;;;;;;5022397;28;20443;-66
2021/06/14 09:26:40;;;;;;;14.25;5.07;;;24.70;84.30;;;;;;5020185;28;20519;-69
2021/06/14 09:29:08;;;;;;;17.13;5.13;;;24.90;85.40;;;;;;5009790;28;20034;-66
2021/06/14 09:31:43;;;;;;;13.65;5.75;;;25.00;82.40;;;;;;5015655;28;20025;-66
2021/06/14 09:34:10;;;;;;;11.13;4.00;;;25.00;81.20;;;;;;5022881;28;20044;-67
2021/06/14 09:36:36;;;;;;;14.38;5.40;;;25.10;81.80;;;;;;5021942;28;20029;-65
2021/06/14 09:39:13;;;;;;;12.10;4.95;;;25.20;83.10;;;;;;5009768;28;20333;-66
2021/06/14 09:41:44;;;;;;;8.95;4.22;;;25.00;81.90;;;;;;5013013;28;20030;-66
2021/06/14 09:44:10;;;;;;;17.30;4.75;;;24.70;80.00;;;;;;5006388;28;20018;-66
2021/06/14 09:46:37;;;;;;;15.10;4.70;;;24.70;83.80;;;;;;5010731;28;20105;-67
2021/06/14 09:49:05;;;;;;;9.70;3.90;;;25.00;83.50;;;;;;5015542;28;20033;-67
2021/06/14 09:51:33;;;;;;;10.32;3.28;;;25.00;81.20;;;;;;5022129;28;20605;-68
2021/06/14 09:54:02;;;;;;;10.50;3.95;;;25.00;80.40;;;;;;5025301;28;20507;-69
2021/06/14 09:56:36;;;;;;;8.10;3.47;;;25.30;77.70;;;;;;5023873;28;20824;-69
2021/06/14 09:59:03;;;;;;;7.15;3.38;;;25.50;75.30;;;;;;5023382;28;20116;-69
2021/06/14 10:01:34;;;;;;;11.85;4.10;;;25.60;74.40;;;;;;5033902;28;20037;-70
2021/06/14 10:04:09;;;;;;;10.18;3.88;;;25.60;76.90;;;;;;5034453;28;20450;-70
2021/06/14 10:06:36;;;;;;;11.75;4.20;;;25.70;77.20;;;;;;5032699;28;20016;-69
2021/06/14 10:09:14;;;;;;;13.68;4.20;;;25.80;75.60;;;;;;5034768;28;20057;-67
2021/06/14 10:11:43;;;;;;;11.90;4.90;;;25.70;78.10;;;;;;5025621;28;20022;-66
2021/06/14 10:14:18;;;;;;;22.02;5.00;;;25.60;77.80;;;;;;5024101;28;20083;-65
2021/06/14 10:17:02;;;;;;;7.18;4.00;;;25.80;78.20;;;;;;5013362;28;20033;-67
2021/06/14 10:19:29;;;;;;;9.80;4.53;;;25.90;74.60;;;;;;5021468;28;20452;-66
2021/06/14 10:21:54;;;;;;;14.90;4.43;;;25.70;72.70;;;;;;5016186;28;20026;-68
2021/06/14 10:24:21;;;;;;;20.73;4.75;;;25.60;73.10;;;;;;5018707;28;20127;-66
2021/06/14 10:26:52;;;;;;;7.80;3.85;;;25.40;73.90;;;;;;5020139;28;20095;-65
2021/06/14 10:29:17;;;;;;;12.82;3.90;;;25.20;74.50;;;;;;5009657;28;20030;-68
2021/06/14 10:31:47;;;;;;;13.40;4.13;;;25.20;74.40;;;;;;5017160;28;20205;-67
2021/06/14 10:34:15;;;;;;;8.75;3.35;;;25.40;74.10;;;;;;5017134;28;20025;-67
2021/06/14 10:36:50;;;;;;;12.00;3.97;;;25.60;70.80;;;;;;5020504;28;20506;-67
2021/06/14 10:39:20;;;;;;;6.57;3.05;;;25.80;68.40;;;;;;5016627;28;20018;-67
2021/06/14 10:41:46;;;;;;;5.80;2.95;;;25.90;65.00;;;;;;5023000;28;20095;-67
2021/06/14 10:44:12;;;;;;;8.13;3.28;;;26.10;61.70;;;;;;5025954;28;20064;-68
2021/06/14 10:46:44;;;;;;;9.73;3.55;;;26.10;62.20;;;;;;5020463;28;20084;-65
2021/06/14 10:49:12;;;;;;;;;;;26.10;65.70;;;;;;5024462;28;20029;-68
2021/06/14 10:51:37;;;;;;;5.55;2.63;;;26.20;62.70;;;;;;5024047;28;19911;-68
2021/06/14 10:54:11;;;;;;;7.13;3.58;;;26.30;63.10;;;;;;5021043;28;20506;-67
2021/06/14 10:56:39;;;;;;;8.05;3.45;;;26.20;63.00;;;;;;5019913;28;20075;-69
2021/06/14 10:59:10;;;;;;;12.18;3.75;;;26.30;64.30;;;;;;5023959;28;20444;-67
2021/06/14 11:01:39;;;;;;;9.50;3.72;;;26.50;63.00;;;;;;5024410;28;20033;-67
2021/06/14 11:04:07;;;;;;;9.55;3.50;;;26.40;63.60;;;;;;5029230;28;20058;-67
2021/06/14 11:06:35;;;;;;;8.70;4.40;;;26.50;65.40;;;;;;5025476;28;20123;-67
2021/06/14 11:09:19;;;;;;;8.65;3.20;;;26.40;65.60;;;;;;5020127;28;20088;-68
2021/06/14 11:11:45;;;;;;;10.27;3.40;;;26.60;62.40;;;;;;5026146;28;20022;-69
2021/06/14 11:14:12;;;;;;;13.45;3.70;;;26.70;63.50;;;;;;5026142;28;20163;-70
2021/06/14 11:16:39;;;;;;;12.77;3.20;;;26.70;62.80;;;;;;5027461;28;20093;-67
2021/06/14 11:19:07;;;;;;;10.15;3.00;;;26.90;61.80;;;;;;5025780;28;20025;-66
2021/06/14 11:21:33;;;;;;;5.70;3.17;;;26.90;61.00;;;;;;5026290;28;20528;-67
2021/06/14 11:24:09;;;;;;;10.48;2.88;;;27.00;59.00;;;;;;5030756;28;20017;-68
2021/06/14 11:26:36;;;;;;;8.07;2.83;;;27.10;56.30;;;;;;5031292;28;20255;-66
2021/06/14 11:29:17;;;;;;;6.78;3.08;;;26.90;57.20;;;;;;5033933;23;20358;-76
2021/06/14 11:31:56;;;;;;;5.68;3.33;;;26.20;57.80;;;;;;5034245;28;20473;-78
2021/06/14 11:34:22;;;;;;;8.82;2.70;;;26.40;57.50;;;;;;5031643;28;20120;-76
2021/06/14 11:36:56;;;;;;;6.10;2.85;;;26.40;56.90;;;;;;5035170;28;20041;-75
2021/06/14 11:39:22;;;;;;;6.05;3.00;;;26.50;55.60;;;;;;5024010;28;20095;-76
2021/06/14 11:41:47;;;;;;;5.85;2.15;;;26.60;56.50;;;;;;5028777;28;20451;-75
2021/06/14 11:44:29;;;;;;;9.90;3.00;;;26.80;56.80;;;;;;5040367;28;20092;-74
2021/06/14 11:46:58;;;;;;;11.70;3.63;;;26.90;56.80;;;;;;5025924;28;20045;-76
2021/06/14 11:49:36;;;;;;;10.82;3.38;;;26.90;57.70;;;;;;5037615;28;20086;-75
2021/06/14 11:52:04;;;;;;;7.60;3.50;;;26.70;58.00;;;;;;5029975;28;20081;-78
2021/06/14 11:54:30;;;;;;;6.05;2.63;;;26.90;53.70;;;;;;5028175;28;20325;-77
2021/06/14 11:57:00;;;;;;;6.60;2.42;;;27.20;53.70;;;;;;5022273;28;20030;-75
2021/06/14 11:59:33;;;;;;;6.45;2.55;;;27.40;52.20;;;;;;5021930;28;20029;-76
2021/06/14 12:02:05;;;;;;;8.30;2.15;;;27.50;53.00;;;;;;5036243;28;20025;-75
2021/06/14 12:04:30;;;;;;;8.93;3.08;;;27.70;51.90;;;;;;5031357;28;20049;-76
2021/06/14 12:07:02;;;;;;;15.30;2.83;;;27.60;53.50;;;;;;5030511;28;20040;-77
2021/06/14 12:09:30;;;;;;;;;;;27.60;54.80;;;;;;5031007;28;20056;-77
2021/06/14 12:12:08;;;;;;;14.98;3.15;;;27.70;53.70;;;;;;5031062;28;19983;-76
2021/06/14 12:14:34;;;;;;;7.93;3.20;;;27.50;55.40;;;;;;5033844;28;20064;-76
2021/06/14 12:17:03;;;;;;;12.68;3.60;;;27.10;57.00;;;;;;5030482;28;20025;-79
2021/06/14 12:19:41;;;;;;;19.17;3.88;;;27.10;58.00;;;;;;5026726;28;20033;-76
2021/06/14 12:22:09;;;;;;;4.75;3.03;;;27.50;58.40;;;;;;5024912;28;20091;-76
2021/06/14 12:24:37;;;;;;;8.23;2.92;;;27.80;56.60;;;;;;5024995;28;20299;-76
2021/06/14 12:27:09;;;;;;;8.75;3.35;;;27.80;55.20;;;;;;5029236;28;20407;-76
2021/06/14 12:29:37;;;;;;;10.27;3.53;;;27.60;55.60;;;;;;5024771;28;20136;-76
2021/06/14 12:32:06;;;;;;;12.10;3.40;;;27.90;56.10;;;;;;5024058;28;20094;-74
2021/06/14 12:34:32;;;;;;;6.05;3.00;;;28.10;55.10;;;;;;5024492;28;20029;-76
2021/06/14 12:37:05;;;;;;;7.20;3.10;;;28.30;56.50;;;;;;5025161;28;20041;-74
2021/06/14 12:39:31;;;;;;;10.35;3.28;;;28.40;55.10;;;;;;5014267;28;20096;-72
2021/06/14 12:41:57;;;;;;;8.48;3.25;;;28.40;54.30;;;;;;5026613;28;20029;-72
2021/06/14 12:44:23;;;;;;;6.32;2.65;;;28.20;53.70;;;;;;5025967;28;20106;-75
2021/06/14 12:46:48;;;;;;;4.50;2.55;;;28.00;54.70;;;;;;5027994;28;20092;-76